Terminal Aerodrome Forecast
Issued by NWS Medford, OR

Home | Current Version | Previous Version | Text Only | Print | Product List | Glossary On
Versions: 1 2 3 4 5 6 7 8 9 10 11 12 13 14 15 16 17 18 19 20 21 22 23 24 25 26 27 28
000
FTUS46 KMFR 191754
TAFMFR
TAF
KMFR 191754Z 1918/2018 00000KT 2SM -SHRA BR OVC003
      TEMPO 1918/1920 VRB03KT 4SM BR SCT006 BKN040
     FM192000 VRB03KT P6SM VCSH SCT015 SCT030 BKN040
     FM192100 VRB03KT P6SM SCT050 BKN070
     FM200000 16006KT P6SM BKN050
     FM200900 16014KT P6SM -RA OVC050
     FM201200 14015G23KT 2SM -RA BR OVC035=

USA.gov is the U.S. government's official web portal to all federal, state and local government web resources and services.